sensor_id;sensor_type;location;lat;lon;timestamp;P1;durP1;ratioP1;P2;durP2;ratioP2
55300;SDS011;58302;51.446;-2.000;2023-07-08T00:00:42;6.10;;;4.35;;
55300;SDS011;58302;51.446;-2.000;2023-07-08T00:03:09;7.00;;;4.40;;
55300;SDS011;58302;51.446;-2.000;2023-07-08T00:05:35;5.78;;;4.50;;
55300;SDS011;58302;51.446;-2.000;2023-07-08T00:08:01;7.78;;;4.85;;
55300;SDS011;58302;51.446;-2.000;2023-07-08T00:10:28;6.05;;;4.20;;
55300;SDS011;58302;51.446;-2.000;2023-07-08T00:12:55;5.40;;;4.20;;
55300;SDS011;58302;51.446;-2.000;2023-07-08T00:15:27;6.70;;;4.82;;
55300;SDS011;58302;51.446;-2.000;2023-07-08T00:17:54;10.23;;;4.60;;
55300;SDS011;58302;51.446;-2.000;2023-07-08T00:20:22;8.32;;;5.22;;
55300;SDS011;58302;51.446;-2.000;2023-07-08T00:22:54;8.52;;;4.53;;
55300;SDS011;58302;51.446;-2.000;2023-07-08T00:25:20;6.28;;;3.75;;
55300;SDS011;58302;51.446;-2.000;2023-07-08T00:27:47;7.60;;;4.75;;
55300;SDS011;58302;51.446;-2.000;2023-07-08T00:30:16;6.78;;;4.40;;
55300;SDS011;58302;51.446;-2.000;2023-07-08T00:32:46;5.13;;;4.40;;
55300;SDS011;58302;51.446;-2.000;2023-07-08T00:35:12;7.88;;;4.80;;
55300;SDS011;58302;51.446;-2.000;2023-07-08T00:37:38;8.10;;;4.68;;
55300;SDS011;58302;51.446;-2.000;2023-07-08T00:40:17;6.45;;;4.75;;
55300;SDS011;58302;51.446;-2.000;2023-07-08T00:42:45;5.93;;;4.28;;
55300;SDS011;58302;51.446;-2.000;2023-07-08T00:51:11;4.97;;;3.65;;
55300;SDS011;58302;51.446;-2.000;2023-07-08T00:53:38;7.65;;;4.10;;
55300;SDS011;58302;51.446;-2.000;2023-07-08T00:56:15;6.32;;;4.57;;
55300;SDS011;58302;51.446;-2.000;2023-07-08T00:59:01;6.45;;;4.45;;
55300;SDS011;58302;51.446;-2.000;2023-07-08T01:01:32;7.05;;;4.85;;
55300;SDS011;58302;51.446;-2.000;2023-07-08T01:04:06;7.47;;;5.60;;
55300;SDS011;58302;51.446;-2.000;2023-07-08T01:06:37;8.75;;;5.03;;
55300;SDS011;58302;51.446;-2.000;2023-07-08T01:09:06;8.00;;;4.60;;
55300;SDS011;58302;51.446;-2.000;2023-07-08T01:11:36;7.35;;;4.72;;
55300;SDS011;58302;51.446;-2.000;2023-07-08T01:14:04;5.93;;;4.32;;
55300;SDS011;58302;51.446;-2.000;2023-07-08T01:16:33;11.25;;;4.50;;
55300;SDS011;58302;51.446;-2.000;2023-07-08T01:19:00;8.25;;;4.55;;
55300;SDS011;58302;51.446;-2.000;2023-07-08T01:21:34;6.03;;;4.05;;
55300;SDS011;58302;51.446;-2.000;2023-07-08T01:24:02;5.38;;;4.38;;
55300;SDS011;58302;51.446;-2.000;2023-07-08T01:26:31;6.05;;;3.70;;
55300;SDS011;58302;51.446;-2.000;2023-07-08T01:29:00;6.57;;;4.60;;
55300;SDS011;58302;51.446;-2.000;2023-07-08T01:31:28;5.13;;;3.75;;
55300;SDS011;58302;51.446;-2.000;2023-07-08T01:33:54;8.07;;;4.28;;
55300;SDS011;58302;51.446;-2.000;2023-07-08T01:36:21;7.93;;;4.90;;
55300;SDS011;58302;51.446;-2.000;2023-07-08T01:38:47;7.32;;;5.28;;
55300;SDS011;58302;51.446;-2.000;2023-07-08T01:41:14;8.07;;;4.45;;
55300;SDS011;58302;51.446;-2.000;2023-07-08T01:43:42;7.18;;;4.57;;
55300;SDS011;58302;51.446;-2.000;2023-07-08T01:46:12;8.52;;;5.00;;
55300;SDS011;58302;51.446;-2.000;2023-07-08T01:48:46;7.07;;;4.60;;
55300;SDS011;58302;51.446;-2.000;2023-07-08T01:51:15;7.18;;;4.22;;
55300;SDS011;58302;51.446;-2.000;2023-07-08T01:53:41;8.23;;;4.78;;
55300;SDS011;58302;51.446;-2.000;2023-07-08T01:56:09;9.18;;;4.18;;
55300;SDS011;58302;51.446;-2.000;2023-07-08T01:58:37;6.50;;;3.90;;
55300;SDS011;58302;51.446;-2.000;2023-07-08T02:01:04;8.95;;;4.65;;
55300;SDS011;58302;51.446;-2.000;2023-07-08T02:03:30;8.23;;;5.22;;
55300;SDS011;58302;51.446;-2.000;2023-07-08T02:05:56;6.28;;;4.03;;
55300;SDS011;58302;51.446;-2.000;2023-07-08T02:08:22;12.52;;;4.65;;
55300;SDS011;58302;51.446;-2.000;2023-07-08T02:10:49;8.23;;;4.63;;
55300;SDS011;58302;51.446;-2.000;2023-07-08T02:13:17;9.18;;;4.72;;
55300;SDS011;58302;51.446;-2.000;2023-07-08T02:15:43;7.57;;;4.47;;
55300;SDS011;58302;51.446;-2.000;2023-07-08T02:18:09;6.10;;;3.58;;
55300;SDS011;58302;51.446;-2.000;2023-07-08T02:20:35;8.57;;;4.75;;
55300;SDS011;58302;51.446;-2.000;2023-07-08T02:23:01;5.50;;;3.95;;
55300;SDS011;58302;51.446;-2.000;2023-07-08T02:25:27;5.22;;;3.35;;
55300;SDS011;58302;51.446;-2.000;2023-07-08T02:27:54;8.10;;;4.65;;
55300;SDS011;58302;51.446;-2.000;2023-07-08T02:30:23;6.82;;;4.95;;
55300;SDS011;58302;51.446;-2.000;2023-07-08T02:32:52;6.18;;;4.25;;
55300;SDS011;58302;51.446;-2.000;2023-07-08T02:35:26;7.38;;;4.47;;
55300;SDS011;58302;51.446;-2.000;2023-07-08T02:37:56;7.38;;;4.13;;
55300;SDS011;58302;51.446;-2.000;2023-07-08T02:40:23;5.57;;;4.13;;
55300;SDS011;58302;51.446;-2.000;2023-07-08T02:42:49;7.30;;;4.32;;
55300;SDS011;58302;51.446;-2.000;2023-07-08T02:45:16;6.22;;;3.53;;
55300;SDS011;58302;51.446;-2.000;2023-07-08T02:47:43;7.55;;;4.18;;
55300;SDS011;58302;51.446;-2.000;2023-07-08T02:50:09;6.10;;;3.80;;
55300;SDS011;58302;51.446;-2.000;2023-07-08T02:52:36;5.82;;;3.75;;
55300;SDS011;58302;51.446;-2.000;2023-07-08T02:55:02;6.97;;;4.47;;
55300;SDS011;58302;51.446;-2.000;2023-07-08T02:57:29;4.80;;;3.33;;
55300;SDS011;58302;51.446;-2.000;2023-07-08T02:59:55;4.55;;;3.35;;
55300;SDS011;58302;51.446;-2.000;2023-07-08T03:02:21;5.28;;;3.45;;
55300;SDS011;58302;51.446;-2.000;2023-07-08T03:04:48;4.75;;;3.28;;
55300;SDS011;58302;51.446;-2.000;2023-07-08T03:07:15;4.25;;;3.25;;
55300;SDS011;58302;51.446;-2.000;2023-07-08T03:09:42;5.45;;;3.60;;
55300;SDS011;58302;51.446;-2.000;2023-07-08T03:12:09;6.32;;;3.90;;
55300;SDS011;58302;51.446;-2.000;2023-07-08T03:14:36;9.45;;;4.70;;
55300;SDS011;58302;51.446;-2.000;2023-07-08T03:17:02;7.63;;;4.13;;
55300;SDS011;58302;51.446;-2.000;2023-07-08T03:19:29;6.78;;;3.60;;
55300;SDS011;58302;51.446;-2.000;2023-07-08T03:21:55;5.40;;;3.83;;
55300;SDS011;58302;51.446;-2.000;2023-07-08T03:24:21;5.32;;;3.53;;
55300;SDS011;58302;51.446;-2.000;2023-07-08T03:26:47;5.88;;;3.35;;
55300;SDS011;58302;51.446;-2.000;2023-07-08T03:29:17;7.28;;;3.80;;
55300;SDS011;58302;51.446;-2.000;2023-07-08T03:31:44;5.95;;;3.40;;
55300;SDS011;58302;51.446;-2.000;2023-07-08T03:34:10;5.57;;;3.20;;
55300;SDS011;58302;51.446;-2.000;2023-07-08T03:36:45;5.22;;;3.97;;
55300;SDS011;58302;51.446;-2.000;2023-07-08T03:39:18;6.72;;;3.95;;
55300;SDS011;58302;51.446;-2.000;2023-07-08T03:41:47;5.88;;;4.05;;
55300;SDS011;58302;51.446;-2.000;2023-07-08T03:44:13;5.25;;;3.85;;
55300;SDS011;58302;51.446;-2.000;2023-07-08T03:46:42;8.85;;;4.43;;
55300;SDS011;58302;51.446;-2.000;2023-07-08T03:49:09;5.85;;;3.92;;
55300;SDS011;58302;51.446;-2.000;2023-07-08T03:51:36;6.78;;;4.43;;
55300;SDS011;58302;51.446;-2.000;2023-07-08T03:54:05;6.25;;;3.58;;
55300;SDS011;58302;51.446;-2.000;2023-07-08T03:56:34;9.85;;;4.28;;
55300;SDS011;58302;51.446;-2.000;2023-07-08T03:59:00;7.68;;;4.20;;
55300;SDS011;58302;51.446;-2.000;2023-07-08T04:01:26;6.47;;;3.85;;
55300;SDS011;58302;51.446;-2.000;2023-07-08T04:03:53;6.25;;;3.42;;
55300;SDS011;58302;51.446;-2.000;2023-07-08T04:06:21;4.72;;;3.88;;
55300;SDS011;58302;51.446;-2.000;2023-07-08T04:08:47;7.07;;;4.28;;
55300;SDS011;58302;51.446;-2.000;2023-07-08T04:11:15;6.00;;;4.25;;
55300;SDS011;58302;51.446;-2.000;2023-07-08T04:13:42;6.53;;;3.80;;
55300;SDS011;58302;51.446;-2.000;2023-07-08T04:16:09;5.65;;;4.05;;
55300;SDS011;58302;51.446;-2.000;2023-07-08T04:18:44;8.15;;;4.35;;
55300;SDS011;58302;51.446;-2.000;2023-07-08T04:21:10;5.75;;;4.00;;
55300;SDS011;58302;51.446;-2.000;2023-07-08T04:23:36;7.85;;;4.20;;
55300;SDS011;58302;51.446;-2.000;2023-07-08T04:26:02;6.97;;;4.03;;
55300;SDS011;58302;51.446;-2.000;2023-07-08T04:28:27;8.07;;;5.50;;
55300;SDS011;58302;51.446;-2.000;2023-07-08T04:30:53;7.90;;;4.28;;
55300;SDS011;58302;51.446;-2.000;2023-07-08T04:33:19;5.55;;;4.10;;
55300;SDS011;58302;51.446;-2.000;2023-07-08T04:35:45;9.15;;;4.45;;
55300;SDS011;58302;51.446;-2.000;2023-07-08T04:38:19;5.88;;;3.90;;
55300;SDS011;58302;51.446;-2.000;2023-07-08T04:40:47;5.85;;;4.25;;
55300;SDS011;58302;51.446;-2.000;2023-07-08T04:43:14;8.02;;;4.03;;
55300;SDS011;58302;51.446;-2.000;2023-07-08T04:45:41;7.65;;;4.43;;
55300;SDS011;58302;51.446;-2.000;2023-07-08T04:48:13;7.63;;;4.20;;
55300;SDS011;58302;51.446;-2.000;2023-07-08T04:50:44;6.45;;;4.05;;
55300;SDS011;58302;51.446;-2.000;2023-07-08T04:53:11;8.32;;;4.88;;
55300;SDS011;58302;51.446;-2.000;2023-07-08T04:55:44;7.35;;;4.53;;
55300;SDS011;58302;51.446;-2.000;2023-07-08T04:58:13;7.40;;;4.53;;
55300;SDS011;58302;51.446;-2.000;2023-07-08T05:00:39;9.48;;;5.10;;
55300;SDS011;58302;51.446;-2.000;2023-07-08T05:03:05;5.60;;;4.10;;
55300;SDS011;58302;51.446;-2.000;2023-07-08T05:05:31;9.10;;;5.22;;
55300;SDS011;58302;51.446;-2.000;2023-07-08T05:07:57;11.52;;;5.18;;
55300;SDS011;58302;51.446;-2.000;2023-07-08T05:10:23;10.63;;;4.60;;
55300;SDS011;58302;51.446;-2.000;2023-07-08T05:12:49;7.93;;;4.50;;
55300;SDS011;58302;51.446;-2.000;2023-07-08T05:15:15;6.72;;;4.22;;
55300;SDS011;58302;51.446;-2.000;2023-07-08T05:17:42;8.43;;;5.03;;
55300;SDS011;58302;51.446;-2.000;2023-07-08T05:20:09;11.90;;;5.13;;
55300;SDS011;58302;51.446;-2.000;2023-07-08T05:22:38;9.05;;;5.43;;
55300;SDS011;58302;51.446;-2.000;2023-07-08T05:25:05;8.13;;;4.95;;
55300;SDS011;58302;51.446;-2.000;2023-07-08T05:27:31;8.65;;;5.15;;
55300;SDS011;58302;51.446;-2.000;2023-07-08T05:30:01;9.75;;;4.82;;
55300;SDS011;58302;51.446;-2.000;2023-07-08T05:32:31;7.90;;;4.45;;
55300;SDS011;58302;51.446;-2.000;2023-07-08T05:34:57;7.18;;;4.80;;
55300;SDS011;58302;51.446;-2.000;2023-07-08T05:37:23;7.80;;;4.82;;
55300;SDS011;58302;51.446;-2.000;2023-07-08T05:39:51;10.55;;;5.07;;
55300;SDS011;58302;51.446;-2.000;2023-07-08T05:42:19;9.38;;;4.20;;
55300;SDS011;58302;51.446;-2.000;2023-07-08T05:44:46;8.05;;;4.10;;
55300;SDS011;58302;51.446;-2.000;2023-07-08T05:47:12;7.68;;;4.30;;
55300;SDS011;58302;51.446;-2.000;2023-07-08T05:49:38;12.68;;;4.93;;
55300;SDS011;58302;51.446;-2.000;2023-07-08T05:52:04;6.50;;;4.32;;
55300;SDS011;58302;51.446;-2.000;2023-07-08T05:54:39;7.75;;;4.10;;
55300;SDS011;58302;51.446;-2.000;2023-07-08T05:57:06;6.03;;;4.47;;
55300;SDS011;58302;51.446;-2.000;2023-07-08T05:59:34;9.02;;;4.13;;
55300;SDS011;58302;51.446;-2.000;2023-07-08T06:02:02;5.45;;;3.83;;
55300;SDS011;58302;51.446;-2.000;2023-07-08T06:04:28;9.38;;;4.72;;
55300;SDS011;58302;51.446;-2.000;2023-07-08T06:06:54;8.95;;;4.03;;
55300;SDS011;58302;51.446;-2.000;2023-07-08T06:09:20;7.72;;;4.32;;
55300;SDS011;58302;51.446;-2.000;2023-07-08T06:11:46;7.32;;;5.50;;
55300;SDS011;58302;51.446;-2.000;2023-07-08T06:14:12;6.88;;;4.78;;
55300;SDS011;58302;51.446;-2.000;2023-07-08T06:16:38;7.32;;;4.57;;
55300;SDS011;58302;51.446;-2.000;2023-07-08T06:19:04;11.18;;;4.88;;
55300;SDS011;58302;51.446;-2.000;2023-07-08T06:21:30;7.03;;;4.35;;
55300;SDS011;58302;51.446;-2.000;2023-07-08T06:23:56;7.20;;;4.53;;
55300;SDS011;58302;51.446;-2.000;2023-07-08T06:26:22;6.15;;;4.18;;
55300;SDS011;58302;51.446;-2.000;2023-07-08T06:28:49;9.18;;;4.93;;
55300;SDS011;58302;51.446;-2.000;2023-07-08T06:31:15;7.97;;;4.50;;
55300;SDS011;58302;51.446;-2.000;2023-07-08T06:33:41;5.40;;;4.13;;
55300;SDS011;58302;51.446;-2.000;2023-07-08T06:36:07;6.97;;;4.53;;
55300;SDS011;58302;51.446;-2.000;2023-07-08T06:38:34;9.27;;;3.97;;
55300;SDS011;58302;51.446;-2.000;2023-07-08T06:41:00;6.57;;;3.90;;
55300;SDS011;58302;51.446;-2.000;2023-07-08T06:43:26;6.78;;;4.18;;
55300;SDS011;58302;51.446;-2.000;2023-07-08T06:45:52;6.65;;;3.97;;
55300;SDS011;58302;51.446;-2.000;2023-07-08T06:48:18;6.28;;;4.75;;
55300;SDS011;58302;51.446;-2.000;2023-07-08T06:50:47;8.88;;;4.30;;
55300;SDS011;58302;51.446;-2.000;2023-07-08T06:53:14;9.63;;;4.30;;
55300;SDS011;58302;51.446;-2.000;2023-07-08T06:55:40;6.90;;;3.80;;
55300;SDS011;58302;51.446;-2.000;2023-07-08T06:58:09;6.72;;;3.28;;
55300;SDS011;58302;51.446;-2.000;2023-07-08T07:00:35;4.85;;;3.40;;
55300;SDS011;58302;51.446;-2.000;2023-07-08T07:03:00;5.43;;;4.45;;
55300;SDS011;58302;51.446;-2.000;2023-07-08T07:05:26;7.07;;;3.90;;
55300;SDS011;58302;51.446;-2.000;2023-07-08T07:07:52;4.90;;;3.35;;
55300;SDS011;58302;51.446;-2.000;2023-07-08T07:10:19;5.03;;;2.83;;
55300;SDS011;58302;51.446;-2.000;2023-07-08T07:12:45;7.60;;;3.67;;
55300;SDS011;58302;51.446;-2.000;2023-07-08T07:15:11;6.57;;;3.13;;
55300;SDS011;58302;51.446;-2.000;2023-07-08T07:17:37;6.00;;;3.35;;
55300;SDS011;58302;51.446;-2.000;2023-07-08T07:20:03;6.20;;;4.25;;
55300;SDS011;58302;51.446;-2.000;2023-07-08T07:22:31;4.70;;;3.28;;
55300;SDS011;58302;51.446;-2.000;2023-07-08T07:24:57;5.05;;;2.72;;
55300;SDS011;58302;51.446;-2.000;2023-07-08T07:27:24;4.18;;;3.05;;
55300;SDS011;58302;51.446;-2.000;2023-07-08T07:29:50;7.00;;;3.42;;
55300;SDS011;58302;51.446;-2.000;2023-07-08T07:32:17;8.13;;;2.85;;
55300;SDS011;58302;51.446;-2.000;2023-07-08T07:34:47;6.38;;;3.15;;
55300;SDS011;58302;51.446;-2.000;2023-07-08T07:37:15;4.65;;;2.97;;
55300;SDS011;58302;51.446;-2.000;2023-07-08T07:39:43;6.20;;;3.08;;
55300;SDS011;58302;51.446;-2.000;2023-07-08T07:42:09;6.20;;;2.92;;
55300;SDS011;58302;51.446;-2.000;2023-07-08T07:44:36;6.85;;;3.60;;
55300;SDS011;58302;51.446;-2.000;2023-07-08T07:47:02;6.07;;;2.92;;
55300;SDS011;58302;51.446;-2.000;2023-07-08T07:49:29;4.68;;;3.63;;
55300;SDS011;58302;51.446;-2.000;2023-07-08T07:51:55;7.07;;;2.67;;
55300;SDS011;58302;51.446;-2.000;2023-07-08T07:54:21;6.07;;;2.80;;
55300;SDS011;58302;51.446;-2.000;2023-07-08T07:56:47;5.68;;;2.83;;
55300;SDS011;58302;51.446;-2.000;2023-07-08T07:59:13;6.88;;;2.30;;
55300;SDS011;58302;51.446;-2.000;2023-07-08T08:01:39;4.85;;;2.95;;
55300;SDS011;58302;51.446;-2.000;2023-07-08T08:04:06;4.55;;;2.50;;
55300;SDS011;58302;51.446;-2.000;2023-07-08T08:06:32;5.20;;;2.55;;
55300;SDS011;58302;51.446;-2.000;2023-07-08T08:08:58;5.45;;;2.53;;
55300;SDS011;58302;51.446;-2.000;2023-07-08T08:11:24;6.82;;;2.47;;
55300;SDS011;58302;51.446;-2.000;2023-07-08T08:13:51;3.28;;;2.22;;
55300;SDS011;58302;51.446;-2.000;2023-07-08T08:16:18;3.20;;;2.50;;
55300;SDS011;58302;51.446;-2.000;2023-07-08T08:18:45;7.05;;;3.17;;
55300;SDS011;58302;51.446;-2.000;2023-07-08T08:21:11;6.93;;;3.42;;
55300;SDS011;58302;51.446;-2.000;2023-07-08T08:23:37;8.85;;;2.95;;
55300;SDS011;58302;51.446;-2.000;2023-07-08T08:26:03;5.95;;;3.00;;
55300;SDS011;58302;51.446;-2.000;2023-07-08T08:28:29;7.55;;;3.10;;
55300;SDS011;58302;51.446;-2.000;2023-07-08T08:30:55;10.65;;;3.42;;
55300;SDS011;58302;51.446;-2.000;2023-07-08T08:33:22;6.28;;;3.15;;
55300;SDS011;58302;51.446;-2.000;2023-07-08T08:35:48;7.78;;;3.15;;
55300;SDS011;58302;51.446;-2.000;2023-07-08T08:38:14;7.63;;;3.10;;
55300;SDS011;58302;51.446;-2.000;2023-07-08T08:40:41;8.43;;;3.50;;
55300;SDS011;58302;51.446;-2.000;2023-07-08T08:43:31;6.32;;;3.47;;
55300;SDS011;58302;51.446;-2.000;2023-07-08T08:46:01;6.15;;;4.20;;
55300;SDS011;58302;51.446;-2.000;2023-07-08T08:48:32;8.90;;;4.15;;
55300;SDS011;58302;51.446;-2.000;2023-07-08T08:51:14;9.07;;;4.22;;
55300;SDS011;58302;51.446;-2.000;2023-07-08T08:53:41;9.73;;;4.18;;
55300;SDS011;58302;51.446;-2.000;2023-07-08T08:56:18;8.32;;;3.70;;
55300;SDS011;58302;51.446;-2.000;2023-07-08T08:58:56;7.13;;;3.97;;
55300;SDS011;58302;51.446;-2.000;2023-07-08T09:01:27;7.53;;;3.33;;
55300;SDS011;58302;51.446;-2.000;2023-07-08T09:04:14;6.95;;;3.85;;
55300;SDS011;58302;51.446;-2.000;2023-07-08T09:06:45;7.28;;;4.20;;
55300;SDS011;58302;51.446;-2.000;2023-07-08T09:12:05;5.47;;;3.53;;
55300;SDS011;58302;51.446;-2.000;2023-07-08T09:14:35;7.20;;;4.22;;
55300;SDS011;58302;51.446;-2.000;2023-07-08T09:17:12;5.28;;;3.65;;
55300;SDS011;58302;51.446;-2.000;2023-07-08T09:19:41;8.70;;;3.60;;
55300;SDS011;58302;51.446;-2.000;2023-07-08T09:38:07;7.85;;;4.07;;
55300;SDS011;58302;51.446;-2.000;2023-07-08T09:40:35;5.35;;;3.95;;
55300;SDS011;58302;51.446;-2.000;2023-07-08T09:43:25;7.40;;;3.72;;
55300;SDS011;58302;51.446;-2.000;2023-07-08T09:45:51;8.65;;;4.22;;
55300;SDS011;58302;51.446;-2.000;2023-07-08T09:48:25;11.52;;;5.35;;
55300;SDS011;58302;51.446;-2.000;2023-07-08T09:50:53;7.20;;;4.40;;
55300;SDS011;58302;51.446;-2.000;2023-07-08T09:53:21;10.95;;;4.40;;
55300;SDS011;58302;51.446;-2.000;2023-07-08T09:55:47;7.53;;;3.55;;
55300;SDS011;58302;51.446;-2.000;2023-07-08T09:58:27;5.25;;;3.67;;
55300;SDS011;58302;51.446;-2.000;2023-07-08T10:00:55;7.10;;;3.83;;
55300;SDS011;58302;51.446;-2.000;2023-07-08T10:03:24;7.43;;;4.32;;
55300;SDS011;58302;51.446;-2.000;2023-07-08T10:05:54;6.13;;;3.38;;
55300;SDS011;58302;51.446;-2.000;2023-07-08T10:08:24;8.25;;;4.03;;
55300;SDS011;58302;51.446;-2.000;2023-07-08T10:11:56;6.15;;;3.30;;
55300;SDS011;58302;51.446;-2.000;2023-07-08T10:13:50;4.28;;;2.92;;
55300;SDS011;58302;51.446;-2.000;2023-07-08T10:18:52;4.82;;;2.95;;
55300;SDS011;58302;51.446;-2.000;2023-07-08T10:21:34;6.28;;;3.30;;
55300;SDS011;58302;51.446;-2.000;2023-07-08T10:29:54;4.65;;;3.45;;
55300;SDS011;58302;51.446;-2.000;2023-07-08T10:32:36;10.25;;;4.15;;
55300;SDS011;58302;51.446;-2.000;2023-07-08T10:35:24;6.50;;;3.50;;
55300;SDS011;58302;51.446;-2.000;2023-07-08T10:45:39;10.05;;;4.88;;
55300;SDS011;58302;51.446;-2.000;2023-07-08T10:48:29;6.55;;;3.80;;
55300;SDS011;58302;51.446;-2.000;2023-07-08T10:56:54;6.45;;;3.58;;
55300;SDS011;58302;51.446;-2.000;2023-07-08T11:10:32;7.30;;;3.60;;
55300;SDS011;58302;51.446;-2.000;2023-07-08T11:12:43;6.80;;;4.03;;
55300;SDS011;58302;51.446;-2.000;2023-07-08T11:15:35;6.40;;;4.70;;
55300;SDS011;58302;51.446;-2.000;2023-07-08T11:21:11;8.65;;;4.15;;
55300;SDS011;58302;51.446;-2.000;2023-07-08T11:23:43;7.45;;;3.50;;
55300;SDS011;58302;51.446;-2.000;2023-07-08T11:29:20;6.38;;;4.20;;
55300;SDS011;58302;51.446;-2.000;2023-07-08T11:31:50;9.13;;;3.97;;
55300;SDS011;58302;51.446;-2.000;2023-07-08T11:34:19;5.28;;;3.50;;
55300;SDS011;58302;51.446;-2.000;2023-07-08T11:36:47;7.90;;;3.88;;
55300;SDS011;58302;51.446;-2.000;2023-07-08T11:39:28;7.25;;;3.60;;
55300;SDS011;58302;51.446;-2.000;2023-07-08T11:42:03;7.43;;;3.42;;
55300;SDS011;58302;51.446;-2.000;2023-07-08T11:44:41;6.85;;;3.80;;
55300;SDS011;58302;51.446;-2.000;2023-07-08T11:47:17;6.47;;;3.70;;
55300;SDS011;58302;51.446;-2.000;2023-07-08T11:49:46;8.00;;;3.97;;
55300;SDS011;58302;51.446;-2.000;2023-07-08T11:52:16;8.50;;;4.90;;
55300;SDS011;58302;51.446;-2.000;2023-07-08T11:54:45;9.30;;;4.63;;
55300;SDS011;58302;51.446;-2.000;2023-07-08T11:57:17;6.85;;;4.43;;
55300;SDS011;58302;51.446;-2.000;2023-07-08T11:59:56;7.53;;;4.15;;
55300;SDS011;58302;51.446;-2.000;2023-07-08T12:02:58;9.38;;;4.50;;
55300;SDS011;58302;51.446;-2.000;2023-07-08T12:08:00;5.82;;;3.35;;
55300;SDS011;58302;51.446;-2.000;2023-07-08T12:13:00;5.30;;;3.75;;
55300;SDS011;58302;51.446;-2.000;2023-07-08T12:15:28;6.05;;;3.35;;
55300;SDS011;58302;51.446;-2.000;2023-07-08T12:18:00;7.35;;;3.58;;
55300;SDS011;58302;51.446;-2.000;2023-07-08T12:20:34;8.25;;;3.42;;
55300;SDS011;58302;51.446;-2.000;2023-07-08T12:23:01;8.48;;;4.50;;
55300;SDS011;58302;51.446;-2.000;2023-07-08T12:25:30;6.00;;;3.53;;
55300;SDS011;58302;51.446;-2.000;2023-07-08T12:27:58;6.47;;;3.95;;
55300;SDS011;58302;51.446;-2.000;2023-07-08T12:30:25;7.90;;;4.25;;
55300;SDS011;58302;51.446;-2.000;2023-07-08T12:32:53;5.72;;;4.40;;
55300;SDS011;58302;51.446;-2.000;2023-07-08T12:35:22;5.40;;;3.80;;
55300;SDS011;58302;51.446;-2.000;2023-07-08T12:37:54;6.80;;;4.80;;
55300;SDS011;58302;51.446;-2.000;2023-07-08T12:40:23;8.27;;;4.70;;
55300;SDS011;58302;51.446;-2.000;2023-07-08T12:42:50;9.55;;;4.60;;
55300;SDS011;58302;51.446;-2.000;2023-07-08T12:45:17;9.35;;;4.70;;
55300;SDS011;58302;51.446;-2.000;2023-07-08T12:47:46;13.23;;;6.32;;
55300;SDS011;58302;51.446;-2.000;2023-07-08T12:50:12;8.90;;;4.38;;
55300;SDS011;58302;51.446;-2.000;2023-07-08T12:52:39;9.50;;;4.78;;
55300;SDS011;58302;51.446;-2.000;2023-07-08T12:55:07;7.43;;;4.50;;
55300;SDS011;58302;51.446;-2.000;2023-07-08T12:57:35;6.15;;;4.22;;
55300;SDS011;58302;51.446;-2.000;2023-07-08T13:00:02;7.18;;;4.20;;
55300;SDS011;58302;51.446;-2.000;2023-07-08T13:02:30;10.13;;;5.10;;
55300;SDS011;58302;51.446;-2.000;2023-07-08T13:05:00;18.83;;;6.22;;
55300;SDS011;58302;51.446;-2.000;2023-07-08T13:07:38;28.10;;;7.40;;
55300;SDS011;58302;51.446;-2.000;2023-07-08T13:10:07;6.93;;;3.65;;
55300;SDS011;58302;51.446;-2.000;2023-07-08T13:12:43;7.65;;;3.95;;
55300;SDS011;58302;51.446;-2.000;2023-07-08T13:15:17;9.95;;;4.10;;
55300;SDS011;58302;51.446;-2.000;2023-07-08T13:17:49;10.45;;;5.22;;
55300;SDS011;58302;51.446;-2.000;2023-07-08T13:20:15;13.55;;;5.35;;
55300;SDS011;58302;51.446;-2.000;2023-07-08T13:22:46;11.75;;;4.65;;
55300;SDS011;58302;51.446;-2.000;2023-07-08T13:25:17;8.20;;;4.38;;
55300;SDS011;58302;51.446;-2.000;2023-07-08T13:28:02;9.32;;;5.07;;
55300;SDS011;58302;51.446;-2.000;2023-07-08T13:30:48;12.15;;;4.97;;
55300;SDS011;58302;51.446;-2.000;2023-07-08T13:33:17;9.10;;;4.32;;
55300;SDS011;58302;51.446;-2.000;2023-07-08T13:35:43;7.28;;;4.28;;
55300;SDS011;58302;51.446;-2.000;2023-07-08T13:38:13;6.80;;;4.40;;
55300;SDS011;58302;51.446;-2.000;2023-07-08T13:40:46;8.00;;;5.28;;
55300;SDS011;58302;51.446;-2.000;2023-07-08T13:43:14;7.75;;;4.80;;
55300;SDS011;58302;51.446;-2.000;2023-07-08T13:45:45;7.75;;;4.85;;
55300;SDS011;58302;51.446;-2.000;2023-07-08T13:48:14;8.00;;;4.63;;
55300;SDS011;58302;51.446;-2.000;2023-07-08T13:50:50;6.53;;;4.38;;
55300;SDS011;58302;51.446;-2.000;2023-07-08T13:53:22;12.73;;;5.93;;
55300;SDS011;58302;51.446;-2.000;2023-07-08T13:55:57;11.48;;;5.32;;
55300;SDS011;58302;51.446;-2.000;2023-07-08T13:58:26;8.13;;;4.45;;
55300;SDS011;58302;51.446;-2.000;2023-07-08T14:00:54;7.07;;;3.35;;
55300;SDS011;58302;51.446;-2.000;2023-07-08T14:03:21;6.95;;;4.32;;
55300;SDS011;58302;51.446;-2.000;2023-07-08T14:05:47;6.93;;;3.88;;
55300;SDS011;58302;51.446;-2.000;2023-07-08T14:08:14;5.60;;;2.95;;
55300;SDS011;58302;51.446;-2.000;2023-07-08T14:10:42;5.05;;;3.53;;
55300;SDS011;58302;51.446;-2.000;2023-07-08T14:13:08;6.85;;;3.72;;
55300;SDS011;58302;51.446;-2.000;2023-07-08T14:15:36;7.03;;;3.22;;
55300;SDS011;58302;51.446;-2.000;2023-07-08T14:18:04;6.07;;;3.70;;
55300;SDS011;58302;51.446;-2.000;2023-07-08T14:20:30;5.70;;;3.70;;
55300;SDS011;58302;51.446;-2.000;2023-07-08T14:22:57;11.38;;;3.88;;
55300;SDS011;58302;51.446;-2.000;2023-07-08T14:25:23;5.82;;;3.90;;
55300;SDS011;58302;51.446;-2.000;2023-07-08T14:27:50;8.57;;;3.35;;
55300;SDS011;58302;51.446;-2.000;2023-07-08T14:30:16;5.35;;;2.83;;
55300;SDS011;58302;51.446;-2.000;2023-07-08T14:32:42;8.48;;;4.03;;
55300;SDS011;58302;51.446;-2.000;2023-07-08T14:35:19;5.75;;;3.75;;
55300;SDS011;58302;51.446;-2.000;2023-07-08T14:37:49;6.65;;;3.42;;
55300;SDS011;58302;51.446;-2.000;2023-07-08T14:40:21;7.13;;;3.60;;
55300;SDS011;58302;51.446;-2.000;2023-07-08T14:42:47;6.10;;;3.63;;
55300;SDS011;58302;51.446;-2.000;2023-07-08T14:45:13;6.63;;;3.22;;
55300;SDS011;58302;51.446;-2.000;2023-07-08T14:47:39;5.90;;;3.85;;
55300;SDS011;58302;51.446;-2.000;2023-07-08T14:50:13;7.90;;;3.85;;
55300;SDS011;58302;51.446;-2.000;2023-07-08T14:52:40;7.03;;;3.00;;
55300;SDS011;58302;51.446;-2.000;2023-07-08T14:55:07;8.00;;;4.38;;
55300;SDS011;58302;51.446;-2.000;2023-07-08T14:57:39;7.97;;;3.78;;
55300;SDS011;58302;51.446;-2.000;2023-07-08T15:00:10;4.95;;;2.83;;
55300;SDS011;58302;51.446;-2.000;2023-07-08T15:02:41;5.35;;;3.03;;
55300;SDS011;58302;51.446;-2.000;2023-07-08T15:05:19;7.07;;;2.95;;
55300;SDS011;58302;51.446;-2.000;2023-07-08T15:07:53;8.93;;;3.42;;
55300;SDS011;58302;51.446;-2.000;2023-07-08T15:10:21;7.47;;;3.50;;
55300;SDS011;58302;51.446;-2.000;2023-07-08T15:12:50;5.35;;;3.05;;
55300;SDS011;58302;51.446;-2.000;2023-07-08T15:15:18;6.40;;;2.80;;
55300;SDS011;58302;51.446;-2.000;2023-07-08T15:17:51;5.40;;;3.05;;
55300;SDS011;58302;51.446;-2.000;2023-07-08T15:20:18;4.38;;;2.55;;
55300;SDS011;58302;51.446;-2.000;2023-07-08T15:22:44;3.80;;;2.85;;
55300;SDS011;58302;51.446;-2.000;2023-07-08T15:25:14;8.38;;;3.13;;
55300;SDS011;58302;51.446;-2.000;2023-07-08T15:27:41;5.53;;;2.58;;
55300;SDS011;58302;51.446;-2.000;2023-07-08T15:30:18;6.55;;;2.53;;
55300;SDS011;58302;51.446;-2.000;2023-07-08T15:32:55;7.28;;;2.30;;
55300;SDS011;58302;51.446;-2.000;2023-07-08T15:35:22;3.72;;;2.33;;
55300;SDS011;58302;51.446;-2.000;2023-07-08T15:37:51;6.72;;;2.80;;
55300;SDS011;58302;51.446;-2.000;2023-07-08T15:40:18;5.97;;;2.58;;
55300;SDS011;58302;51.446;-2.000;2023-07-08T15:42:51;3.60;;;2.50;;
55300;SDS011;58302;51.446;-2.000;2023-07-08T15:47:51;6.03;;;2.72;;
55300;SDS011;58302;51.446;-2.000;2023-07-08T15:50:19;3.95;;;3.00;;
55300;SDS011;58302;51.446;-2.000;2023-07-08T15:52:47;3.85;;;2.47;;
55300;SDS011;58302;51.446;-2.000;2023-07-08T15:55:13;6.00;;;3.08;;